createdAt,value
2019-03-22T00:01:12.187Z,8.87
2019-03-22T00:03:42.539Z,9.80
2019-03-22T00:06:12.823Z,10.97
2019-03-22T00:08:43.308Z,10.83
2019-03-22T00:11:13.515Z,9.93
2019-03-22T00:13:43.844Z,9.30
2019-03-22T00:16:14.109Z,9.33
2019-03-22T00:18:44.294Z,8.77
2019-03-22T00:21:14.821Z,8.97
2019-03-22T00:23:45.176Z,9.47
2019-03-22T00:26:15.478Z,8.80
2019-03-22T00:28:45.977Z,8.30
2019-03-22T00:31:16.328Z,7.87
2019-03-22T00:33:47.482Z,8.43
2019-03-22T00:36:17.677Z,5.90
2019-03-22T00:38:49.376Z,5.73
2019-03-22T00:41:19.621Z,5.87
2019-03-22T00:43:49.812Z,5.27
2019-03-22T00:46:20.189Z,5.73
2019-03-22T00:48:50.397Z,5.97
2019-03-22T00:51:20.570Z,6.00
2019-03-22T00:53:51.066Z,6.27
2019-03-22T00:56:21.451Z,5.53
2019-03-22T00:58:51.706Z,6.17
2019-03-22T01:01:22.044Z,5.70
2019-03-22T01:03:52.407Z,5.13
2019-03-22T01:06:22.851Z,4.60
2019-03-22T01:08:53.054Z,4.77
2019-03-22T01:11:23.500Z,4.33
2019-03-22T01:13:53.674Z,4.93
2019-03-22T01:16:23.991Z,4.53
2019-03-22T01:18:54.234Z,4.40
2019-03-22T01:21:24.600Z,4.90
2019-03-22T01:23:54.829Z,5.50
2019-03-22T01:26:25.072Z,5.93
2019-03-22T01:28:55.410Z,6.80
2019-03-22T01:31:25.803Z,7.80
2019-03-22T01:33:56.016Z,7.93
2019-03-22T01:36:27.319Z,8.43
2019-03-22T01:38:57.709Z,8.10
2019-03-22T01:41:27.962Z,8.53
2019-03-22T01:43:58.196Z,8.63
2019-03-22T01:46:28.687Z,8.97
2019-03-22T01:48:58.938Z,10.77
2019-03-22T01:51:29.238Z,10.80
2019-03-22T01:53:59.984Z,11.00
2019-03-22T01:56:31.478Z,13.00
2019-03-22T01:59:01.789Z,12.80
2019-03-22T02:01:32.485Z,14.80
2019-03-22T02:04:02.834Z,12.90
2019-03-22T02:06:33.017Z,13.03
2019-03-22T02:09:03.977Z,12.10
2019-03-22T02:11:34.456Z,9.43
2019-03-22T02:14:05.039Z,9.03
2019-03-22T02:16:35.609Z,9.17
2019-03-22T02:19:05.968Z,9.27
2019-03-22T02:21:36.637Z,10.07
2019-03-22T02:24:07.077Z,11.23
2019-03-22T02:26:37.275Z,11.30
2019-03-22T02:29:08.353Z,11.47
2019-03-22T02:31:38.565Z,11.90
2019-03-22T02:34:08.864Z,12.93
2019-03-22T02:36:39.341Z,33.90
2019-03-22T02:39:10.741Z,45.17
2019-03-22T02:41:41.245Z,16.93
2019-03-22T02:44:11.413Z,16.10
2019-03-22T02:46:41.770Z,15.10
2019-03-22T02:49:12.120Z,16.20
2019-03-22T02:51:42.334Z,14.17
2019-03-22T02:54:12.828Z,13.10
2019-03-22T02:56:43.056Z,13.03
2019-03-22T02:59:13.277Z,13.83
2019-03-22T03:01:43.574Z,11.23
2019-03-22T03:04:13.809Z,10.63
2019-03-22T03:06:44.091Z,10.93
2019-03-22T03:09:14.588Z,10.00
2019-03-22T03:11:44.819Z,10.27
2019-03-22T03:14:15.245Z,11.30
2019-03-22T03:16:45.434Z,11.33
2019-03-22T03:19:16.003Z,9.00
2019-03-22T03:21:46.300Z,9.50
2019-03-22T03:24:16.582Z,10.30
2019-03-22T03:26:46.740Z,10.13
2019-03-22T03:29:17.089Z,9.43
2019-03-22T03:31:47.542Z,10.43
2019-03-22T03:34:17.735Z,9.60
2019-03-22T03:36:47.995Z,10.00
2019-03-22T03:39:18.439Z,9.27
2019-03-22T03:41:48.660Z,8.70
2019-03-22T03:44:19.100Z,9.07
2019-03-22T03:46:49.425Z,9.13
2019-03-22T03:49:19.743Z,8.37
2019-03-22T03:51:50.024Z,8.13
2019-03-22T03:54:20.307Z,7.30
2019-03-22T03:56:50.715Z,7.83
2019-03-22T03:59:20.976Z,7.73
2019-03-22T04:01:51.133Z,7.83
2019-03-22T04:04:21.352Z,7.80
2019-03-22T04:06:51.761Z,7.80
2019-03-22T04:09:22.210Z,6.80
2019-03-22T04:11:52.607Z,7.20
2019-03-22T04:14:23.106Z,8.10
2019-03-22T04:16:53.566Z,7.73
2019-03-22T04:19:23.833Z,7.60
2019-03-22T04:21:54.251Z,6.97
2019-03-22T04:24:24.416Z,6.40
2019-03-22T04:26:54.735Z,5.73
2019-03-22T04:29:25.019Z,6.40
2019-03-22T04:31:55.222Z,7.60
2019-03-22T04:34:25.577Z,7.47
2019-03-22T04:36:55.742Z,8.13
2019-03-22T04:39:26.024Z,16.33
2019-03-22T04:41:56.488Z,22.53
2019-03-22T04:44:27.032Z,16.47
2019-03-22T04:46:57.565Z,13.47
2019-03-22T04:49:29.030Z,10.67
2019-03-22T04:51:59.524Z,9.57
2019-03-22T04:54:32.011Z,8.00
2019-03-22T04:57:04.387Z,8.07
2019-03-22T04:59:35.505Z,7.97
2019-03-22T05:02:07.736Z,7.93
2019-03-22T05:04:41.344Z,9.23
2019-03-22T05:07:12.069Z,8.20
2019-03-22T05:09:42.865Z,7.93
2019-03-22T05:12:16.297Z,9.30
2019-03-22T05:14:47.244Z,13.57
2019-03-22T05:17:18.126Z,15.17
2019-03-22T05:19:54.182Z,22.93
2019-03-22T05:22:26.326Z,23.43
2019-03-22T05:24:59.569Z,25.50
2019-03-22T05:27:32.286Z,20.53
2019-03-22T05:30:07.313Z,19.53
2019-03-22T05:32:37.490Z,17.97
2019-03-22T05:35:07.958Z,17.63
2019-03-22T05:37:38.283Z,16.83
2019-03-22T05:40:09.261Z,16.90
2019-03-22T05:42:40.866Z,16.47
2019-03-22T05:45:11.342Z,15.90
2019-03-22T05:47:41.747Z,21.63
2019-03-22T05:50:12.368Z,19.97
2019-03-22T05:52:42.655Z,18.50
2019-03-22T05:55:13.176Z,20.53
2019-03-22T05:57:43.489Z,23.73
2019-03-22T06:00:15.494Z,19.50
2019-03-22T06:02:45.702Z,24.13
2019-03-22T06:05:16.037Z,24.80
2019-03-22T06:07:46.419Z,27.83
2019-03-22T06:10:16.697Z,27.10
2019-03-22T06:12:47.318Z,23.03
2019-03-22T06:15:17.722Z,24.50
2019-03-22T06:17:51.807Z,22.00
2019-03-22T06:20:19.982Z,20.63
2019-03-22T06:22:50.393Z,20.93
2019-03-22T06:25:20.656Z,19.67
2019-03-22T06:27:50.946Z,14.50
2019-03-22T06:30:21.338Z,13.97
2019-03-22T06:32:51.446Z,14.83
2019-03-22T06:35:21.727Z,13.23
2019-03-22T06:37:52.084Z,11.07
2019-03-22T06:40:22.456Z,11.47
2019-03-22T06:42:52.752Z,10.47
2019-03-22T06:45:24.631Z,12.80
2019-03-22T06:47:54.864Z,18.03
2019-03-22T06:50:25.305Z,16.87
2019-03-22T06:52:55.497Z,17.30
2019-03-22T06:55:25.769Z,16.43
2019-03-22T06:57:56.190Z,16.97
2019-03-22T07:00:26.514Z,23.97
2019-03-22T07:02:56.813Z,23.43
2019-03-22T07:05:27.075Z,19.13
2019-03-22T07:07:57.492Z,16.87
2019-03-22T07:10:27.744Z,19.73
2019-03-22T07:12:57.899Z,20.27
2019-03-22T07:15:28.252Z,16.07
2019-03-22T07:17:58.676Z,16.03
2019-03-22T07:20:29.231Z,11.90
2019-03-22T07:23:00.811Z,11.20
2019-03-22T07:25:31.193Z,11.37
2019-03-22T07:28:01.514Z,9.93
2019-03-22T07:30:31.849Z,8.40
2019-03-22T07:33:02.275Z,9.67
2019-03-22T07:35:32.695Z,9.57
2019-03-22T07:38:03.073Z,13.00
2019-03-22T07:40:33.350Z,12.07
2019-03-22T07:43:03.754Z,13.03
2019-03-22T07:45:34.268Z,12.77
2019-03-22T07:48:05.567Z,11.53
2019-03-22T07:50:35.886Z,12.47
2019-03-22T07:53:06.169Z,13.17
2019-03-22T07:55:36.683Z,12.23
2019-03-22T07:58:07.006Z,11.07
2019-03-22T08:00:37.504Z,11.60
2019-03-22T08:03:07.752Z,10.60
2019-03-22T08:05:38.103Z,11.67
2019-03-22T08:08:08.371Z,11.43
2019-03-22T08:10:38.808Z,13.40
2019-03-22T08:13:09.126Z,13.13
2019-03-22T08:15:39.342Z,11.73
2019-03-22T08:18:09.856Z,12.63
2019-03-22T08:20:40.216Z,12.90
2019-03-22T08:23:23.237Z,14.00
2019-03-22T08:25:53.683Z,14.07
2019-03-22T08:28:23.823Z,13.10
2019-03-22T08:30:54.319Z,12.73
2019-03-22T08:33:25.724Z,13.33
2019-03-22T08:35:56.028Z,11.53
2019-03-22T08:38:26.425Z,14.57
2019-03-22T08:40:56.787Z,15.10
2019-03-22T08:43:27.179Z,13.23
2019-03-22T08:45:57.406Z,14.10
2019-03-22T08:48:27.798Z,17.70
2019-03-22T08:50:57.989Z,14.97
2019-03-22T08:53:30.602Z,15.47
2019-03-22T08:56:00.939Z,19.33
2019-03-22T08:58:31.505Z,19.97
2019-03-22T09:01:01.887Z,20.50
2019-03-22T09:03:32.078Z,22.03
2019-03-22T09:06:02.580Z,19.57
2019-03-22T09:08:33.997Z,12.60
2019-03-22T09:11:04.413Z,26.57
2019-03-22T09:13:34.687Z,14.30
2019-03-22T09:16:05.158Z,13.63
2019-03-22T09:18:35.514Z,13.43
2019-03-22T09:21:06.173Z,17.10
2019-03-22T09:23:36.370Z,29.73
2019-03-22T09:26:06.832Z,26.70
2019-03-22T09:28:37.023Z,13.00
2019-03-22T09:31:11.026Z,12.27
2019-03-22T09:33:39.357Z,12.53
2019-03-22T09:36:09.819Z,26.17
2019-03-22T09:38:39.991Z,26.87
2019-03-22T09:41:10.459Z,32.20
2019-03-22T09:43:40.992Z,14.53
2019-03-22T09:46:11.320Z,19.40
2019-03-22T09:48:41.747Z,40.87
2019-03-22T09:51:12.083Z,15.03
2019-03-22T09:53:42.291Z,33.93
2019-03-22T09:56:12.756Z,14.33
2019-03-22T09:58:43.212Z,24.60
2019-03-22T10:01:23.170Z,16.87
2019-03-22T10:03:45.624Z,16.93
2019-03-22T10:06:15.848Z,16.47
2019-03-22T10:08:45.956Z,23.33
2019-03-22T10:11:16.347Z,17.50
2019-03-22T10:13:48.373Z,19.53
2019-03-22T10:16:18.507Z,19.80
2019-03-22T10:18:48.742Z,15.93
2019-03-22T10:21:22.654Z,19.50
2019-03-22T10:23:50.995Z,14.70
2019-03-22T10:26:21.151Z,13.90
2019-03-22T10:28:51.419Z,12.67
2019-03-22T10:31:21.757Z,12.40
2019-03-22T10:33:52.021Z,11.60
2019-03-22T10:36:22.415Z,12.17
2019-03-22T10:38:52.694Z,11.87
2019-03-22T10:41:23.070Z,11.20
2019-03-22T10:43:54.647Z,12.27
2019-03-22T10:46:24.962Z,11.53
2019-03-22T10:48:55.287Z,10.83
2019-03-22T10:51:25.761Z,10.13
2019-03-22T10:53:56.065Z,10.93
2019-03-22T10:56:26.471Z,10.73
2019-03-22T10:58:56.851Z,10.10
2019-03-22T11:01:27.089Z,10.37
2019-03-22T11:03:57.507Z,9.60
2019-03-22T11:06:29.313Z,10.40
2019-03-22T11:08:59.606Z,9.40
2019-03-22T11:11:29.954Z,9.93
2019-03-22T11:14:00.297Z,9.40
2019-03-22T11:16:30.611Z,9.00
2019-03-22T11:19:00.760Z,9.40
2019-03-22T11:21:30.940Z,7.77
2019-03-22T11:24:01.287Z,9.50
2019-03-22T11:26:31.764Z,9.50
2019-03-22T11:29:01.930Z,8.93
2019-03-22T11:31:39.528Z,8.90
2019-03-22T11:34:05.068Z,8.83
2019-03-22T11:36:35.466Z,8.30
2019-03-22T11:39:15.436Z,8.50
2019-03-22T11:41:42.451Z,7.93
2019-03-22T11:44:12.794Z,7.83
2019-03-22T11:46:43.174Z,9.27
2019-03-22T11:49:13.655Z,8.33
2019-03-22T11:51:45.195Z,8.30
2019-03-22T11:54:15.405Z,8.07
2019-03-22T11:56:45.865Z,7.80
2019-03-22T11:59:16.235Z,7.60
2019-03-22T12:01:46.558Z,8.63
2019-03-22T12:04:17.045Z,8.57
2019-03-22T12:06:47.278Z,8.17
2019-03-22T12:09:17.592Z,7.93
2019-03-22T12:11:47.835Z,7.77
2019-03-22T12:14:18.346Z,8.43
2019-03-22T12:16:48.677Z,7.47
2019-03-22T12:19:20.130Z,7.47
2019-03-22T12:21:50.573Z,8.10
2019-03-22T12:24:20.780Z,7.43
2019-03-22T12:26:51.108Z,7.17
2019-03-22T12:29:21.370Z,8.37
2019-03-22T12:31:52.110Z,7.30
2019-03-22T12:34:22.423Z,6.80
2019-03-22T12:36:54.058Z,6.77
2019-03-22T12:39:24.357Z,6.77
2019-03-22T12:41:54.710Z,7.53
2019-03-22T12:44:25.022Z,7.33
2019-03-22T12:46:55.458Z,7.37
2019-03-22T12:49:25.690Z,7.00
2019-03-22T12:51:56.000Z,7.07
2019-03-22T12:54:26.334Z,7.00
2019-03-22T12:56:56.588Z,6.70
2019-03-22T12:59:27.029Z,5.67
2019-03-22T13:01:57.244Z,6.27
2019-03-22T13:04:27.641Z,7.00
2019-03-22T13:06:58.126Z,7.27
2019-03-22T13:09:29.867Z,5.73
2019-03-22T13:12:00.029Z,6.20
2019-03-22T13:14:30.189Z,5.80
2019-03-22T13:17:00.544Z,6.63
2019-03-22T13:19:30.927Z,6.30
2019-03-22T13:22:01.259Z,6.07
2019-03-22T13:24:31.474Z,5.93
2019-03-22T13:27:01.808Z,6.57
2019-03-22T13:29:32.068Z,5.67
2019-03-22T13:32:02.619Z,5.13
2019-03-22T13:34:32.926Z,6.03
2019-03-22T13:37:03.478Z,5.77
2019-03-22T13:39:33.849Z,5.97
2019-03-22T13:42:04.116Z,6.10
2019-03-22T13:44:34.520Z,5.83
2019-03-22T13:47:04.939Z,40.53
2019-03-22T13:49:35.201Z,6.83
2019-03-22T13:52:05.588Z,6.57
2019-03-22T13:54:35.742Z,6.20
2019-03-22T13:57:07.500Z,5.73
2019-03-22T13:59:37.821Z,6.23
2019-03-22T14:02:08.325Z,6.63
2019-03-22T14:04:38.550Z,6.17
2019-03-22T14:07:09.149Z,5.57
2019-03-22T14:09:39.378Z,5.27
2019-03-22T14:12:09.744Z,5.67
2019-03-22T14:14:40.029Z,7.17
2019-03-22T14:17:10.494Z,8.57
2019-03-22T14:19:40.649Z,6.53
2019-03-22T14:22:11.100Z,13.30
2019-03-22T14:24:41.618Z,14.07
2019-03-22T14:27:14.163Z,16.43
2019-03-22T14:29:44.371Z,15.83
2019-03-22T14:32:14.928Z,13.70
2019-03-22T14:34:45.248Z,10.37
2019-03-22T14:37:15.877Z,14.37
2019-03-22T14:39:46.167Z,21.67
2019-03-22T14:42:16.431Z,10.83
2019-03-22T14:44:46.690Z,8.60
2019-03-22T14:47:17.231Z,12.40
2019-03-22T14:49:47.354Z,8.80
2019-03-22T14:52:17.836Z,12.50
2019-03-22T14:54:48.071Z,10.30
2019-03-22T14:57:18.494Z,6.37
2019-03-22T14:59:58.393Z,7.37
2019-03-22T15:02:20.725Z,7.53
2019-03-22T15:04:51.005Z,5.83
2019-03-22T15:07:21.325Z,6.53
2019-03-22T15:09:51.652Z,8.80
2019-03-22T15:12:21.990Z,7.40
2019-03-22T15:15:08.223Z,8.93
2019-03-22T15:18:06.459Z,6.33
2019-03-22T15:20:55.295Z,4.50
2019-03-22T15:23:44.487Z,5.33
2019-03-22T15:26:46.213Z,5.50
2019-03-22T15:29:44.579Z,5.37
2019-03-22T15:32:50.704Z,5.23
2019-03-22T15:35:44.974Z,4.87
2019-03-22T15:38:37.142Z,5.57
2019-03-22T15:41:07.607Z,5.67
2019-03-22T15:43:37.983Z,5.63
2019-03-22T15:46:09.108Z,4.97
2019-03-22T15:48:39.660Z,5.67
2019-03-22T15:51:10.134Z,5.53
2019-03-22T15:53:40.474Z,5.73
2019-03-22T15:56:11.127Z,5.53
2019-03-22T15:58:41.529Z,5.37
2019-03-22T16:01:12.063Z,5.37
2019-03-22T16:03:44.508Z,6.00
2019-03-22T16:06:15.135Z,6.20
2019-03-22T16:08:45.633Z,6.27
2019-03-22T16:11:15.907Z,6.97
2019-03-22T16:13:46.204Z,7.77
2019-03-22T16:16:16.642Z,7.13
2019-03-22T16:18:48.118Z,11.97
2019-03-22T16:21:18.359Z,7.60
2019-03-22T16:23:48.751Z,10.53
2019-03-22T16:26:19.052Z,8.00
2019-03-22T16:28:49.198Z,8.13
2019-03-22T16:31:19.590Z,11.97
2019-03-22T16:33:54.300Z,8.23
2019-03-22T16:36:21.910Z,8.50
2019-03-22T16:38:52.097Z,8.63
2019-03-22T16:41:22.611Z,8.37
2019-03-22T16:43:53.110Z,15.83
2019-03-22T16:46:23.270Z,11.73
2019-03-22T16:48:55.025Z,9.20
2019-03-22T16:51:25.407Z,8.47
2019-03-22T16:53:55.724Z,9.67
2019-03-22T16:56:26.026Z,9.60
2019-03-22T16:58:56.384Z,8.57
2019-03-22T17:01:26.750Z,7.67
2019-03-22T17:04:04.353Z,8.40
2019-03-22T17:06:30.565Z,7.20
2019-03-22T17:09:00.961Z,7.60
2019-03-22T17:11:31.437Z,7.93
2019-03-22T17:14:02.389Z,8.73
2019-03-22T17:16:32.883Z,10.50
2019-03-22T17:19:03.158Z,9.27
2019-03-22T17:21:33.406Z,9.40
2019-03-22T17:24:04.102Z,9.30
2019-03-22T17:26:34.660Z,9.80
2019-03-22T17:29:05.231Z,8.53
2019-03-22T17:31:35.482Z,12.17
2019-03-22T17:34:13.965Z,8.47
2019-03-22T17:36:38.041Z,8.73
2019-03-22T17:39:08.894Z,8.47
2019-03-22T17:41:39.110Z,9.07
2019-03-22T17:44:09.484Z,9.97
2019-03-22T17:46:39.727Z,10.63
2019-03-22T17:49:10.198Z,10.10
2019-03-22T17:51:40.664Z,11.77
2019-03-22T17:54:10.926Z,11.20
2019-03-22T17:56:42.514Z,10.60
2019-03-22T17:59:12.772Z,11.53
2019-03-22T18:01:43.182Z,11.57
2019-03-22T18:04:13.530Z,10.30
2019-03-22T18:06:43.749Z,11.40
2019-03-22T18:09:14.041Z,11.27
2019-03-22T18:11:44.307Z,11.80
2019-03-22T18:14:14.583Z,10.43
2019-03-22T18:16:44.691Z,9.93
2019-03-22T18:19:15.265Z,9.83
2019-03-22T18:21:45.589Z,9.63
2019-03-22T18:24:16.284Z,10.87
2019-03-22T18:26:46.737Z,10.30
2019-03-22T18:29:17.219Z,11.47
2019-03-22T18:31:47.884Z,10.93
2019-03-22T18:34:18.612Z,11.10
2019-03-22T18:36:48.946Z,11.73
2019-03-22T18:39:19.377Z,11.53
2019-03-22T18:41:49.766Z,12.47
2019-03-22T18:44:20.184Z,11.63
2019-03-22T18:46:50.512Z,12.20
2019-03-22T18:49:21.049Z,12.53
2019-03-22T18:51:51.345Z,12.53
2019-03-22T18:54:21.996Z,12.60
2019-03-22T18:56:52.991Z,11.83
2019-03-22T18:59:23.447Z,21.63
2019-03-22T19:01:53.870Z,11.50
2019-03-22T19:04:24.343Z,12.40
2019-03-22T19:06:56.203Z,11.83
2019-03-22T19:09:26.774Z,11.13
2019-03-22T19:11:57.434Z,13.10
2019-03-22T19:14:29.257Z,13.43
2019-03-22T19:17:00.019Z,12.57
2019-03-22T19:19:30.565Z,14.47
2019-03-22T19:22:01.139Z,13.77
2019-03-22T19:24:31.500Z,12.60
2019-03-22T19:27:03.255Z,13.80
2019-03-22T19:29:33.577Z,13.17
2019-03-22T19:32:13.373Z,12.47
2019-03-22T19:34:36.476Z,11.73
2019-03-22T19:37:06.778Z,12.90
2019-03-22T19:39:38.313Z,12.57
2019-03-22T19:42:08.643Z,12.37
2019-03-22T19:44:39.130Z,12.67
2019-03-22T19:47:09.306Z,13.10
2019-03-22T19:49:39.956Z,12.60
2019-03-22T19:52:10.673Z,12.77
2019-03-22T19:54:41.116Z,12.10
2019-03-22T19:57:11.461Z,11.40
2019-03-22T19:59:41.792Z,11.60
2019-03-22T20:02:12.245Z,11.77
2019-03-22T20:04:42.527Z,11.33
2019-03-22T20:07:13.205Z,11.53
2019-03-22T20:09:45.699Z,14.10
2019-03-22T20:12:16.086Z,12.60
2019-03-22T20:14:46.617Z,13.20
2019-03-22T20:17:17.258Z,12.87
2019-03-22T20:19:47.783Z,12.83
2019-03-22T20:22:18.277Z,12.70
2019-03-22T20:24:48.667Z,12.23
2019-03-22T20:27:19.306Z,12.10
2019-03-22T20:29:49.931Z,11.77
2019-03-22T20:32:20.410Z,11.40
2019-03-22T20:34:50.923Z,10.77
2019-03-22T20:37:21.229Z,11.30
2019-03-22T20:39:51.727Z,11.30
2019-03-22T20:42:22.059Z,10.83
2019-03-22T20:44:52.740Z,11.57
2019-03-22T20:47:23.117Z,11.60
2019-03-22T20:49:53.956Z,12.13
2019-03-22T20:52:24.336Z,11.87
2019-03-22T20:54:54.810Z,13.13
2019-03-22T20:57:24.988Z,11.73
2019-03-22T20:59:55.718Z,11.13
2019-03-22T21:02:26.704Z,11.70
2019-03-22T21:04:57.147Z,11.40
2019-03-22T21:07:27.595Z,12.50
2019-03-22T21:09:58.008Z,13.17
2019-03-22T21:12:28.428Z,12.97
2019-03-22T21:14:58.695Z,13.00
2019-03-22T21:17:29.024Z,13.50
2019-03-22T21:19:59.351Z,13.53
2019-03-22T21:22:29.844Z,14.60
2019-03-22T21:25:00.353Z,14.47
2019-03-22T21:27:31.308Z,16.87
2019-03-22T21:30:01.943Z,17.03
2019-03-22T21:32:32.090Z,16.47
2019-03-22T21:35:02.524Z,17.13
2019-03-22T21:37:33.289Z,15.70
2019-03-22T21:40:03.815Z,13.43
2019-03-22T21:42:34.242Z,12.97
2019-03-22T21:45:04.854Z,13.00
2019-03-22T21:47:35.252Z,13.40
2019-03-22T21:50:08.610Z,13.87
2019-03-22T21:52:39.104Z,15.80
2019-03-22T21:55:09.296Z,16.77
2019-03-22T21:57:39.987Z,19.53
2019-03-22T22:00:10.550Z,19.17
2019-03-22T22:02:40.893Z,17.93
2019-03-22T22:05:11.583Z,18.80
2019-03-22T22:07:41.894Z,17.73
2019-03-22T22:10:12.338Z,18.83
2019-03-22T22:12:43.366Z,18.33
2019-03-22T22:15:13.908Z,17.90
2019-03-22T22:17:44.275Z,16.80
2019-03-22T22:20:14.719Z,15.03
2019-03-22T22:22:44.990Z,15.00
2019-03-22T22:25:15.329Z,14.80
2019-03-22T22:27:45.580Z,12.47
2019-03-22T22:30:17.021Z,12.03
2019-03-22T22:32:47.255Z,14.67
2019-03-22T22:35:17.610Z,11.50
2019-03-22T22:37:47.923Z,11.60
2019-03-22T22:40:18.398Z,12.50
2019-03-22T22:42:48.691Z,12.93
2019-03-22T22:45:18.837Z,11.23
2019-03-22T22:47:49.220Z,12.00
2019-03-22T22:50:19.765Z,11.53
2019-03-22T22:52:50.563Z,10.70
2019-03-22T22:55:20.902Z,12.10
2019-03-22T22:57:51.143Z,19.70
2019-03-22T23:00:21.597Z,18.90
2019-03-22T23:02:51.830Z,22.13
2019-03-22T23:05:22.510Z,24.73
2019-03-22T23:07:53.010Z,13.23
2019-03-22T23:10:23.329Z,10.83
2019-03-22T23:12:53.659Z,10.53
2019-03-22T23:15:26.056Z,9.80
2019-03-22T23:17:56.355Z,9.00
2019-03-22T23:20:26.720Z,9.57
2019-03-22T23:22:57.002Z,9.77
2019-03-22T23:25:27.301Z,9.80
2019-03-22T23:27:57.650Z,9.57
2019-03-22T23:30:29.078Z,9.53
2019-03-22T23:32:59.383Z,8.57
2019-03-22T23:35:30.899Z,9.47
2019-03-22T23:38:01.217Z,9.83
2019-03-22T23:40:31.546Z,9.83
2019-03-22T23:43:01.987Z,11.10
2019-03-22T23:45:32.260Z,10.40
2019-03-22T23:48:02.516Z,9.73
2019-03-22T23:50:32.905Z,10.47
2019-03-22T23:53:03.182Z,10.37
2019-03-22T23:55:33.506Z,10.47
2019-03-22T23:58:03.874Z,10.60
